sensor_id;sensor_type;location;lat;lon;timestamp;pressure;altitude;pressure_sealevel;temperature;humidity
44765;BME280;30484;52.382;5.260;2023-01-26T00:00:16;102614.75;;;3.83;100.00
44765;BME280;30484;52.382;5.260;2023-01-26T00:02:47;102623.31;;;3.45;100.00
44765;BME280;30484;52.382;5.260;2023-01-26T00:05:17;102613.03;;;3.93;100.00
44765;BME280;30484;52.382;5.260;2023-01-26T00:07:48;102612.94;;;3.76;100.00
44765;BME280;30484;52.382;5.260;2023-01-26T00:10:19;102608.59;;;3.87;100.00
44765;BME280;30484;52.382;5.260;2023-01-26T00:12:48;102604.03;;;3.60;100.00
44765;BME280;30484;52.382;5.260;2023-01-26T00:15:20;102592.97;;;4.37;100.00
44765;BME280;30484;52.382;5.260;2023-01-26T00:17:50;102597.06;;;3.77;100.00
44765;BME280;30484;52.382;5.260;2023-01-26T00:20:19;102593.84;;;4.39;100.00
44765;BME280;30484;52.382;5.260;2023-01-26T00:22:49;102585.81;;;4.09;100.00
44765;BME280;30484;52.382;5.260;2023-01-26T00:25:18;102585.81;;;4.05;100.00
44765;BME280;30484;52.382;5.260;2023-01-26T00:27:48;102582.97;;;3.74;100.00
44765;BME280;30484;52.382;5.260;2023-01-26T00:30:21;102604.19;;;3.86;100.00
44765;BME280;30484;52.382;5.260;2023-01-26T00:32:50;102586.75;;;4.27;100.00
44765;BME280;30484;52.382;5.260;2023-01-26T00:35:19;102579.56;;;3.93;100.00
44765;BME280;30484;52.382;5.260;2023-01-26T00:37:49;102583.66;;;3.45;100.00
44765;BME280;30484;52.382;5.260;2023-01-26T00:40:18;102584.88;;;3.95;100.00
44765;BME280;30484;52.382;5.260;2023-01-26T00:42:48;102585.03;;;4.34;100.00
44765;BME280;30484;52.382;5.260;2023-01-26T00:45:21;102579.69;;;4.18;100.00
44765;BME280;30484;52.382;5.260;2023-01-26T00:47:51;102577.97;;;4.28;100.00
44765;BME280;30484;52.382;5.260;2023-01-26T00:50:23;102568.72;;;3.52;100.00
44765;BME280;30484;52.382;5.260;2023-01-26T00:52:52;102577.72;;;3.85;100.00
44765;BME280;30484;52.382;5.260;2023-01-26T00:55:21;102573.34;;;3.88;100.00
44765;BME280;30484;52.382;5.260;2023-01-26T00:57:59;102566.47;;;4.26;100.00
44765;BME280;30484;52.382;5.260;2023-01-26T01:00:36;102568.78;;;3.61;100.00
44765;BME280;30484;52.382;5.260;2023-01-26T01:03:07;102566.53;;;4.37;100.00
44765;BME280;30484;52.382;5.260;2023-01-26T01:05:37;102555.88;;;4.17;100.00
44765;BME280;30484;52.382;5.260;2023-01-26T01:08:06;102567.28;;;4.08;100.00
44765;BME280;30484;52.382;5.260;2023-01-26T01:10:36;102555.00;;;4.25;100.00
44765;BME280;30484;52.382;5.260;2023-01-26T01:13:06;102563.75;;;4.09;100.00
44765;BME280;30484;52.382;5.260;2023-01-26T01:15:39;102555.00;;;4.25;100.00
44765;BME280;30484;52.382;5.260;2023-01-26T01:18:10;102558.44;;;4.00;100.00
44765;BME280;30484;52.382;5.260;2023-01-26T01:20:40;102558.44;;;3.96;100.00
44765;BME280;30484;52.382;5.260;2023-01-26T01:23:09;102574.13;;;3.72;100.00
44765;BME280;30484;52.382;5.260;2023-01-26T01:25:38;102566.25;;;3.75;100.00
44765;BME280;30484;52.382;5.260;2023-01-26T01:28:08;102562.84;;;3.99;100.00
44765;BME280;30484;52.382;5.260;2023-01-26T01:30:39;102572.63;;;4.20;100.00
44765;BME280;30484;52.382;5.260;2023-01-26T01:33:12;102559.38;;;4.20;100.00
44765;BME280;30484;52.382;5.260;2023-01-26T01:35:41;102562.97;;;4.31;100.00
44765;BME280;30484;52.382;5.260;2023-01-26T01:38:10;102562.78;;;3.91;100.00
44765;BME280;30484;52.382;5.260;2023-01-26T01:40:42;102564.72;;;4.25;100.00
44765;BME280;30484;52.382;5.260;2023-01-26T01:43:12;102565.59;;;4.35;100.00
44765;BME280;30484;52.382;5.260;2023-01-26T01:45:44;102554.16;;;4.32;100.00
44765;BME280;30484;52.382;5.260;2023-01-26T01:48:22;102564.84;;;4.60;100.00
44765;BME280;30484;52.382;5.260;2023-01-26T01:50:55;102562.16;;;4.49;100.00
44765;BME280;30484;52.382;5.260;2023-01-26T01:53:29;102566.47;;;4.27;100.00
44765;BME280;30484;52.382;5.260;2023-01-26T01:56:03;102564.78;;;4.54;100.00
44765;BME280;30484;52.382;5.260;2023-01-26T01:58:38;102569.88;;;3.97;100.00
44765;BME280;30484;52.382;5.260;2023-01-26T02:01:12;102574.47;;;4.46;100.00
44765;BME280;30484;52.382;5.260;2023-01-26T02:03:44;102567.38;;;4.23;100.00
44765;BME280;30484;52.382;5.260;2023-01-26T02:06:21;102572.69;;;4.39;100.00
44765;BME280;30484;52.382;5.260;2023-01-26T02:08:54;102568.19;;;4.13;100.00
44765;BME280;30484;52.382;5.260;2023-01-26T02:11:29;102567.38;;;4.32;100.00
44765;BME280;30484;52.382;5.260;2023-01-26T02:14:02;102570.03;;;4.36;100.00
44765;BME280;30484;52.382;5.260;2023-01-26T02:16:35;102571.81;;;4.34;100.00
44765;BME280;30484;52.382;5.260;2023-01-26T02:19:13;102573.59;;;4.44;100.00
44765;BME280;30484;52.382;5.260;2023-01-26T02:21:49;102567.44;;;4.57;100.00
44765;BME280;30484;52.382;5.260;2023-01-26T02:24:25;102564.78;;;4.53;100.00
44765;BME280;30484;52.382;5.260;2023-01-26T02:27:00;102571.88;;;4.57;100.00
44765;BME280;30484;52.382;5.260;2023-01-26T02:29:30;102566.56;;;4.61;100.00
44765;BME280;30484;52.382;5.260;2023-01-26T02:32:01;102576.25;;;4.44;100.00
44765;BME280;30484;52.382;5.260;2023-01-26T02:34:31;102570.06;;;4.43;100.00
44765;BME280;30484;52.382;5.260;2023-01-26T02:37:03;102578.88;;;4.45;100.00
44765;BME280;30484;52.382;5.260;2023-01-26T02:39:42;102565.69;;;4.62;100.00
44765;BME280;30484;52.382;5.260;2023-01-26T02:42:15;102559.53;;;4.66;100.00
44765;BME280;30484;52.382;5.260;2023-01-26T02:45:06;102561.31;;;4.68;100.00
44765;BME280;30484;52.382;5.260;2023-01-26T02:47:36;102565.69;;;4.55;100.00
44765;BME280;30484;52.382;5.260;2023-01-26T02:50:10;102565.75;;;4.78;100.00
44765;BME280;30484;52.382;5.260;2023-01-26T02:52:39;102571.91;;;4.69;100.00
44765;BME280;30484;52.382;5.260;2023-01-26T02:55:09;102564.78;;;4.57;100.00
44765;BME280;30484;52.382;5.260;2023-01-26T02:57:54;102561.34;;;4.89;100.00
44765;BME280;30484;52.382;5.260;2023-01-26T03:00:27;102563.09;;;4.90;100.00
44765;BME280;30484;52.382;5.260;2023-01-26T03:03:00;102562.19;;;4.73;100.00
44765;BME280;30484;52.382;5.260;2023-01-26T03:05:31;102564.75;;;4.36;100.00
44765;BME280;30484;52.382;5.260;2023-01-26T03:08:01;102571.03;;;4.78;100.00
44765;BME280;30484;52.382;5.260;2023-01-26T03:10:33;102577.22;;;4.89;100.00
44765;BME280;30484;52.382;5.260;2023-01-26T03:13:05;102574.47;;;4.43;100.00
44765;BME280;30484;52.382;5.260;2023-01-26T03:15:39;102579.78;;;4.49;100.00
44765;BME280;30484;52.382;5.260;2023-01-26T03:18:21;102569.22;;;4.55;100.00
44765;BME280;30484;52.382;5.260;2023-01-26T03:21:28;102580.75;;;4.91;100.00
44765;BME280;30484;52.382;5.260;2023-01-26T03:24:32;102571.03;;;4.81;100.00
44765;BME280;30484;52.382;5.260;2023-01-26T03:27:43;102568.41;;;4.96;100.00
44765;BME280;30484;52.382;5.260;2023-01-26T03:30:35;102569.25;;;4.74;100.00
44765;BME280;30484;52.382;5.260;2023-01-26T03:33:24;102562.19;;;4.73;100.00
44765;BME280;30484;52.382;5.260;2023-01-26T03:36:07;102578.06;;;4.77;100.00
44765;BME280;30484;52.382;5.260;2023-01-26T03:38:39;102577.19;;;4.72;100.00
44765;BME280;30484;52.382;5.260;2023-01-26T03:41:09;102570.09;;;4.59;100.00
44765;BME280;30484;52.382;5.260;2023-01-26T03:43:58;102578.13;;;4.97;100.00
44765;BME280;30484;52.382;5.260;2023-01-26T03:46:47;102570.16;;;4.94;100.00
44765;BME280;30484;52.382;5.260;2023-01-26T03:49:34;102576.31;;;4.90;100.00
44765;BME280;30484;52.382;5.260;2023-01-26T03:52:22;102576.31;;;4.90;100.00
44765;BME280;30484;52.382;5.260;2023-01-26T03:55:09;102572.81;;;5.13;100.00
44765;BME280;30484;52.382;5.260;2023-01-26T03:57:57;102573.72;;;5.13;100.00
44765;BME280;30484;52.382;5.260;2023-01-26T04:00:26;102569.28;;;5.17;100.00
44765;BME280;30484;52.382;5.260;2023-01-26T04:02:59;102574.59;;;5.12;100.00
44765;BME280;30484;52.382;5.260;2023-01-26T04:05:47;102571.94;;;4.84;100.00
44765;BME280;30484;52.382;5.260;2023-01-26T04:08:43;102576.34;;;5.09;100.00
44765;BME280;30484;52.382;5.260;2023-01-26T04:11:12;102564.00;;;5.15;100.00
44765;BME280;30484;52.382;5.260;2023-01-26T04:13:43;102571.94;;;5.17;100.00
44765;BME280;30484;52.382;5.260;2023-01-26T04:16:31;102577.25;;;5.08;100.00
44765;BME280;30484;52.382;5.260;2023-01-26T04:19:39;102572.81;;;5.07;100.00
44765;BME280;30484;52.382;5.260;2023-01-26T04:22:45;102567.53;;;5.07;100.00
44765;BME280;30484;52.382;5.260;2023-01-26T04:25:34;102569.28;;;5.14;100.00
44765;BME280;30484;52.382;5.260;2023-01-26T04:28:24;102571.06;;;5.18;100.00
44765;BME280;30484;52.382;5.260;2023-01-26T04:31:13;102565.78;;;5.30;100.00
44765;BME280;30484;52.382;5.260;2023-01-26T04:34:09;102561.34;;;5.17;100.00
44765;BME280;30484;52.382;5.260;2023-01-26T04:37:00;102561.34;;;5.28;100.00
44765;BME280;30484;52.382;5.260;2023-01-26T04:39:51;102568.41;;;5.15;100.00
44765;BME280;30484;52.382;5.260;2023-01-26T04:42:41;102558.72;;;5.05;100.00
44765;BME280;30484;52.382;5.260;2023-01-26T04:45:13;102557.81;;;5.12;100.00
44765;BME280;30484;52.382;5.260;2023-01-26T04:47:47;102554.25;;;4.68;100.00
44765;BME280;30484;52.382;5.260;2023-01-26T04:50:18;102560.47;;;5.10;100.00
44765;BME280;30484;52.382;5.260;2023-01-26T04:53:10;102550.75;;;4.98;100.00
44765;BME280;30484;52.382;5.260;2023-01-26T04:56:00;102550.75;;;5.31;100.00
44765;BME280;30484;52.382;5.260;2023-01-26T04:58:50;102558.69;;;5.45;100.00
44765;BME280;30484;52.382;5.260;2023-01-26T05:01:42;102554.25;;;5.33;100.00
44765;BME280;30484;52.382;5.260;2023-01-26T05:04:31;102545.44;;;5.46;100.00
44765;BME280;30484;52.382;5.260;2023-01-26T05:07:21;102543.66;;;5.39;100.00
44765;BME280;30484;52.382;5.260;2023-01-26T05:10:12;102550.72;;;5.46;100.00
44765;BME280;30484;52.382;5.260;2023-01-26T05:13:02;102548.97;;;5.07;100.00
44765;BME280;30484;52.382;5.260;2023-01-26T05:15:53;102544.56;;;5.36;100.00
44765;BME280;30484;52.382;5.260;2023-01-26T05:18:27;102538.34;;;5.48;100.00
44765;BME280;30484;52.382;5.260;2023-01-26T05:21:01;102547.19;;;5.50;100.00
44765;BME280;30484;52.382;5.260;2023-01-26T05:23:31;102543.66;;;5.47;100.00
44765;BME280;30484;52.382;5.260;2023-01-26T05:26:01;102548.97;;;5.08;100.00
44765;BME280;30484;52.382;5.260;2023-01-26T05:28:30;102556.91;;;5.28;100.00
44765;BME280;30484;52.382;5.260;2023-01-26T05:30:59;102547.19;;;5.43;100.00
44765;BME280;30484;52.382;5.260;2023-01-26T05:33:30;102551.59;;;5.53;100.00
44765;BME280;30484;52.382;5.260;2023-01-26T05:36:05;102544.56;;;5.24;100.00
44765;BME280;30484;52.382;5.260;2023-01-26T05:38:40;102549.84;;;5.46;100.00
44765;BME280;30484;52.382;5.260;2023-01-26T05:41:10;102560.41;;;5.60;100.00
44765;BME280;30484;52.382;5.260;2023-01-26T05:43:41;102554.25;;;5.53;100.00
44765;BME280;30484;52.382;5.260;2023-01-26T05:46:10;102557.81;;;5.36;100.00
44765;BME280;30484;52.382;5.260;2023-01-26T05:48:39;102550.72;;;5.59;100.00
44765;BME280;30484;52.382;5.260;2023-01-26T05:51:07;102560.41;;;5.69;100.00
44765;BME280;30484;52.382;5.260;2023-01-26T05:53:36;102564.81;;;5.68;100.00
44765;BME280;30484;52.382;5.260;2023-01-26T05:56:05;102553.38;;;5.51;100.00
44765;BME280;30484;52.382;5.260;2023-01-26T05:58:36;102569.22;;;5.73;100.00
44765;BME280;30484;52.382;5.260;2023-01-26T06:01:04;102571.03;;;5.57;100.00
44765;BME280;30484;52.382;5.260;2023-01-26T06:03:35;102579.81;;;5.85;100.00
44765;BME280;30484;52.382;5.260;2023-01-26T06:06:05;102569.22;;;5.83;100.00
44765;BME280;30484;52.382;5.260;2023-01-26T06:08:34;102570.94;;;5.95;100.00
44765;BME280;30484;52.382;5.260;2023-01-26T06:11:03;102572.72;;;6.02;100.00
44765;BME280;30484;52.382;5.260;2023-01-26T06:13:32;102570.06;;;6.04;100.00
44765;BME280;30484;52.382;5.260;2023-01-26T06:16:03;102564.75;;;5.95;100.00
44765;BME280;30484;52.382;5.260;2023-01-26T06:18:34;102574.47;;;6.08;100.00
44765;BME280;30484;52.382;5.260;2023-01-26T06:21:04;102566.50;;;6.11;100.00
44765;BME280;30484;52.382;5.260;2023-01-26T06:23:35;102571.78;;;6.13;100.00
44765;BME280;30484;52.382;5.260;2023-01-26T06:26:04;102570.06;;;6.01;100.00
44765;BME280;30484;52.382;5.260;2023-01-26T06:28:39;102565.66;;;6.04;100.00
44765;BME280;30484;52.382;5.260;2023-01-26T06:31:09;102570.97;;;6.03;100.00
44765;BME280;30484;52.382;5.260;2023-01-26T06:33:39;102584.22;;;6.08;100.00
44765;BME280;30484;52.382;5.260;2023-01-26T06:36:10;102588.63;;;6.05;100.00
44765;BME280;30484;52.382;5.260;2023-01-26T06:38:44;102589.53;;;6.03;100.00
44765;BME280;30484;52.382;5.260;2023-01-26T06:41:16;102580.66;;;6.05;100.00
44765;BME280;30484;52.382;5.260;2023-01-26T06:43:47;102595.72;;;6.05;100.00
44765;BME280;30484;52.382;5.260;2023-01-26T06:46:17;102597.50;;;6.04;100.00
44765;BME280;30484;52.382;5.260;2023-01-26T06:48:47;102597.47;;;6.11;100.00
44765;BME280;30484;52.382;5.260;2023-01-26T06:52:02;102602.78;;;6.08;100.00
44765;BME280;30484;52.382;5.260;2023-01-26T06:54:31;102597.44;;;6.12;100.00
44765;BME280;30484;52.382;5.260;2023-01-26T06:57:00;102614.25;;;6.17;100.00
44765;BME280;30484;52.382;5.260;2023-01-26T06:59:29;102602.72;;;6.18;100.00
44765;BME280;30484;52.382;5.260;2023-01-26T07:01:59;102591.25;;;6.13;100.00
44765;BME280;30484;52.382;5.260;2023-01-26T07:04:28;102609.78;;;6.30;100.00
44765;BME280;30484;52.382;5.260;2023-01-26T07:06:57;102613.28;;;6.34;100.00
44765;BME280;30484;52.382;5.260;2023-01-26T07:09:26;102615.94;;;6.37;100.00
44765;BME280;30484;52.382;5.260;2023-01-26T07:11:54;102619.47;;;6.39;100.00
44765;BME280;30484;52.382;5.260;2023-01-26T07:14:23;102620.34;;;6.47;100.00
44765;BME280;30484;52.382;5.260;2023-01-26T07:16:53;102619.44;;;6.45;100.00
44765;BME280;30484;52.382;5.260;2023-01-26T07:19:24;102625.66;;;6.39;100.00
44765;BME280;30484;52.382;5.260;2023-01-26T07:21:52;102626.47;;;6.54;100.00
44765;BME280;30484;52.382;5.260;2023-01-26T07:24:21;102632.69;;;6.56;100.00
44765;BME280;30484;52.382;5.260;2023-01-26T07:26:51;102625.69;;;6.35;100.00
44765;BME280;30484;52.382;5.260;2023-01-26T07:29:19;102632.69;;;6.53;100.00
44765;BME280;30484;52.382;5.260;2023-01-26T07:31:50;102635.28;;;6.64;100.00
44765;BME280;30484;52.382;5.260;2023-01-26T07:34:19;102636.06;;;6.80;100.00
44765;BME280;30484;52.382;5.260;2023-01-26T07:36:50;102636.09;;;6.78;100.00
44765;BME280;30484;52.382;5.260;2023-01-26T07:39:19;102643.00;;;7.08;100.00
44765;BME280;30484;52.382;5.260;2023-01-26T07:41:49;102644.91;;;6.85;100.00
44765;BME280;30484;52.382;5.260;2023-01-26T07:44:18;102637.75;;;6.98;100.00
44765;BME280;30484;52.382;5.260;2023-01-26T07:46:47;102649.13;;;7.23;100.00
44765;BME280;30484;52.382;5.260;2023-01-26T07:49:17;102654.22;;;7.48;100.00
44765;BME280;30484;52.382;5.260;2023-01-26T07:51:45;102647.28;;;7.28;100.00
44765;BME280;30484;52.382;5.260;2023-01-26T07:54:16;102649.63;;;7.68;100.00
44765;BME280;30484;52.382;5.260;2023-01-26T07:56:44;102659.16;;;7.89;100.00
44765;BME280;30484;52.382;5.260;2023-01-26T07:59:13;102650.34;;;7.87;100.00
44765;BME280;30484;52.382;5.260;2023-01-26T08:01:42;102655.56;;;7.98;100.00
44765;BME280;30484;52.382;5.260;2023-01-26T08:04:11;102653.78;;;7.97;100.00
44765;BME280;30484;52.382;5.260;2023-01-26T08:06:39;102658.03;;;8.13;100.00
44765;BME280;30484;52.382;5.260;2023-01-26T08:09:08;102654.72;;;7.93;100.00
44765;BME280;30484;52.382;5.260;2023-01-26T08:11:38;102656.47;;;7.95;100.00
44765;BME280;30484;52.382;5.260;2023-01-26T08:14:07;102649.28;;;8.01;100.00
44765;BME280;30484;52.382;5.260;2023-01-26T08:16:35;102650.50;;;7.70;100.00
44765;BME280;30484;52.382;5.260;2023-01-26T08:19:04;102653.63;;;8.14;100.00
44765;BME280;30484;52.382;5.260;2023-01-26T08:21:35;102658.25;;;7.93;100.00
44765;BME280;30484;52.382;5.260;2023-01-26T08:24:05;102661.53;;;8.20;100.00
44765;BME280;30484;52.382;5.260;2023-01-26T08:26:33;102658.06;;;8.10;100.00
44765;BME280;30484;52.382;5.260;2023-01-26T08:29:03;102664.19;;;8.19;100.00
44765;BME280;30484;52.382;5.260;2023-01-26T08:31:33;102657.94;;;8.24;100.00
44765;BME280;30484;52.382;5.260;2023-01-26T08:34:02;102670.28;;;8.30;100.00
44765;BME280;30484;52.382;5.260;2023-01-26T08:36:30;102680.94;;;8.30;100.00
44765;BME280;30484;52.382;5.260;2023-01-26T08:39:00;102686.34;;;8.21;100.00
44765;BME280;30484;52.382;5.260;2023-01-26T08:41:30;102686.13;;;8.42;100.00
44765;BME280;30484;52.382;5.260;2023-01-26T08:44:00;102683.75;;;8.16;100.00
44765;BME280;30484;52.382;5.260;2023-01-26T08:46:30;102683.44;;;8.47;100.00
44765;BME280;30484;52.382;5.260;2023-01-26T08:48:59;102687.13;;;8.35;100.00
44765;BME280;30484;52.382;5.260;2023-01-26T08:51:30;102682.66;;;8.36;100.00
44765;BME280;30484;52.382;5.260;2023-01-26T08:53:59;102694.78;;;8.63;100.00
44765;BME280;30484;52.382;5.260;2023-01-26T08:56:28;102693.19;;;8.50;100.00
44765;BME280;30484;52.382;5.260;2023-01-26T08:58:57;102686.75;;;8.66;100.00
44765;BME280;30484;52.382;5.260;2023-01-26T09:01:26;102692.19;;;8.58;100.00
44765;BME280;30484;52.382;5.260;2023-01-26T09:03:56;102697.44;;;8.64;100.00
44765;BME280;30484;52.382;5.260;2023-01-26T09:06:25;102703.34;;;8.90;100.00
44765;BME280;30484;52.382;5.260;2023-01-26T09:08:57;102701.56;;;8.89;100.00
44765;BME280;30484;52.382;5.260;2023-01-26T09:11:25;102696.47;;;8.70;100.00
44765;BME280;30484;52.382;5.260;2023-01-26T09:13:55;102697.81;;;9.05;100.00
44765;BME280;30484;52.382;5.260;2023-01-26T09:16:24;102701.63;;;8.86;100.00
44765;BME280;30484;52.382;5.260;2023-01-26T09:18:53;102697.66;;;9.14;100.00
44765;BME280;30484;52.382;5.260;2023-01-26T09:21:24;102696.47;;;8.70;100.00
44765;BME280;30484;52.382;5.260;2023-01-26T09:23:55;102707.38;;;9.19;100.00
44765;BME280;30484;52.382;5.260;2023-01-26T09:26:24;102694.78;;;9.28;100.00
44765;BME280;30484;52.382;5.260;2023-01-26T09:28:53;102703.94;;;9.10;100.00
44765;BME280;30484;52.382;5.260;2023-01-26T09:31:23;102699.81;;;8.86;100.00
44765;BME280;30484;52.382;5.260;2023-01-26T09:33:52;102712.22;;;8.89;100.00
44765;BME280;30484;52.382;5.260;2023-01-26T09:36:22;102704.31;;;8.84;100.00
44765;BME280;30484;52.382;5.260;2023-01-26T09:38:51;102694.16;;;9.12;100.00
44765;BME280;30484;52.382;5.260;2023-01-26T09:41:43;102701.09;;;9.23;100.00
44765;BME280;30484;52.382;5.260;2023-01-26T09:44:21;102698.63;;;9.09;100.00
44765;BME280;30484;52.382;5.260;2023-01-26T09:47:04;102703.03;;;9.11;100.00
44765;BME280;30484;52.382;5.260;2023-01-26T09:49:46;102706.84;;;9.54;100.00
44765;BME280;30484;52.382;5.260;2023-01-26T09:52:23;102704.00;;;9.66;100.00
44765;BME280;30484;52.382;5.260;2023-01-26T09:54:56;102707.63;;;9.61;100.00
44765;BME280;30484;52.382;5.260;2023-01-26T09:57:32;102714.63;;;9.68;100.00
44765;BME280;30484;52.382;5.260;2023-01-26T10:00:08;102708.00;;;9.36;100.00
44765;BME280;30484;52.382;5.260;2023-01-26T10:02:50;102709.75;;;9.95;100.00
44765;BME280;30484;52.382;5.260;2023-01-26T10:05:29;102711.00;;;9.72;100.00
44765;BME280;30484;52.382;5.260;2023-01-26T10:08:04;102711.75;;;9.79;100.00
44765;BME280;30484;52.382;5.260;2023-01-26T10:10:40;102701.81;;;10.39;100.00
44765;BME280;30484;52.382;5.260;2023-01-26T10:13:14;102713.59;;;10.27;100.00
44765;BME280;30484;52.382;5.260;2023-01-26T10:15:48;102706.38;;;10.77;100.00
44765;BME280;30484;52.382;5.260;2023-01-26T10:18:23;102695.69;;;10.77;100.00
44765;BME280;30484;52.382;5.260;2023-01-26T10:20:59;102696.56;;;10.78;100.00
44765;BME280;30484;52.382;5.260;2023-01-26T10:23:32;102696.56;;;11.18;100.00
44765;BME280;30484;52.382;5.260;2023-01-26T10:26:11;102690.28;;;11.19;100.00
44765;BME280;30484;52.382;5.260;2023-01-26T10:28:42;102702.88;;;11.14;100.00
44765;BME280;30484;52.382;5.260;2023-01-26T10:31:15;102701.72;;;11.64;100.00
44765;BME280;30484;52.382;5.260;2023-01-26T10:33:51;102707.09;;;11.64;100.00
44765;BME280;30484;52.382;5.260;2023-01-26T10:36:21;102700.69;;;12.05;100.00
44765;BME280;30484;52.382;5.260;2023-01-26T10:38:53;102703.53;;;12.32;100.00
44765;BME280;30484;52.382;5.260;2023-01-26T10:41:32;102714.84;;;12.11;100.00
44765;BME280;30484;52.382;5.260;2023-01-26T10:44:21;102716.78;;;12.70;100.00
44765;BME280;30484;52.382;5.260;2023-01-26T10:47:09;102716.59;;;12.45;100.00
44765;BME280;30484;52.382;5.260;2023-01-26T10:49:41;102711.50;;;12.67;100.00
44765;BME280;30484;52.382;5.260;2023-01-26T10:52:16;102716.69;;;12.41;100.00
44765;BME280;30484;52.382;5.260;2023-01-26T10:54:46;102713.56;;;11.89;100.00
44765;BME280;30484;52.382;5.260;2023-01-26T10:57:20;102716.47;;;12.16;100.00
44765;BME280;30484;52.382;5.260;2023-01-26T10:59:55;102712.41;;;12.01;100.00
44765;BME280;30484;52.382;5.260;2023-01-26T11:02:27;102719.56;;;12.01;100.00
44765;BME280;30484;52.382;5.260;2023-01-26T11:05:19;102718.25;;;12.17;100.00
44765;BME280;30484;52.382;5.260;2023-01-26T11:07:49;102725.28;;;11.85;100.00
44765;BME280;30484;52.382;5.260;2023-01-26T11:10:29;102715.53;;;12.19;100.00
44765;BME280;30484;52.382;5.260;2023-01-26T11:13:14;102715.75;;;12.09;100.00
44765;BME280;30484;52.382;5.260;2023-01-26T11:15:46;102723.25;;;12.30;100.00
44765;BME280;30484;52.382;5.260;2023-01-26T11:18:40;102711.69;;;11.95;100.00
44765;BME280;30484;52.382;5.260;2023-01-26T11:21:16;102712.22;;;11.73;100.00
44765;BME280;30484;52.382;5.260;2023-01-26T11:23:54;102704.22;;;11.71;100.00
44765;BME280;30484;52.382;5.260;2023-01-26T11:27:01;102707.66;;;11.77;100.00
44765;BME280;30484;52.382;5.260;2023-01-26T11:33:22;102701.97;;;11.54;100.00
44765;BME280;30484;52.382;5.260;2023-01-26T11:36:02;102714.66;;;11.82;100.00
44765;BME280;30484;52.382;5.260;2023-01-26T11:38:39;102709.13;;;11.52;100.00
44765;BME280;30484;52.382;5.260;2023-01-26T11:41:24;102710.81;;;11.92;100.00
44765;BME280;30484;52.382;5.260;2023-01-26T11:44:24;102708.84;;;12.01;100.00
44765;BME280;30484;52.382;5.260;2023-01-26T11:47:09;102705.25;;;12.35;100.00
44765;BME280;30484;52.382;5.260;2023-01-26T11:50:03;102697.97;;;12.71;100.00
44765;BME280;30484;52.382;5.260;2023-01-26T11:52:50;102690.94;;;12.36;100.00
44765;BME280;30484;52.382;5.260;2023-01-26T11:55:37;102696.81;;;12.80;100.00
44765;BME280;30484;52.382;5.260;2023-01-26T11:58:21;102697.81;;;13.06;100.00
44765;BME280;30484;52.382;5.260;2023-01-26T12:00:58;102690.13;;;12.32;100.00
44765;BME280;30484;52.382;5.260;2023-01-26T12:03:35;102685.63;;;12.66;100.00
44765;BME280;30484;52.382;5.260;2023-01-26T12:06:16;102697.50;;;12.57;100.00
44765;BME280;30484;52.382;5.260;2023-01-26T12:08:50;102690.03;;;12.97;100.00
44765;BME280;30484;52.382;5.260;2023-01-26T12:11:34;102690.66;;;12.76;100.00
44765;BME280;30484;52.382;5.260;2023-01-26T12:14:20;102683.66;;;13.29;100.00
44765;BME280;30484;52.382;5.260;2023-01-26T12:17:10;102675.00;;;12.61;100.00
44765;BME280;30484;52.382;5.260;2023-01-26T12:19:51;102675.50;;;12.74;100.00
44765;BME280;30484;52.382;5.260;2023-01-26T12:22:27;102670.78;;;12.52;100.00
44765;BME280;30484;52.382;5.260;2023-01-26T12:25:13;102669.28;;;12.73;100.00
44765;BME280;30484;52.382;5.260;2023-01-26T12:27:52;102667.16;;;12.85;100.00
44765;BME280;30484;52.382;5.260;2023-01-26T12:30:34;102670.00;;;12.80;100.00
44765;BME280;30484;52.382;5.260;2023-01-26T12:33:07;102662.69;;;12.54;100.00
44765;BME280;30484;52.382;5.260;2023-01-26T12:36:07;102665.03;;;12.66;100.00
44765;BME280;30484;52.382;5.260;2023-01-26T12:39:02;102646.31;;;12.65;100.00
44765;BME280;30484;52.382;5.260;2023-01-26T12:42:00;102647.97;;;12.69;100.00
44765;BME280;30484;52.382;5.260;2023-01-26T12:44:37;102641.41;;;12.49;100.00
44765;BME280;30484;52.382;5.260;2023-01-26T12:47:16;102631.06;;;12.35;100.00
44765;BME280;30484;52.382;5.260;2023-01-26T12:49:55;102634.84;;;12.28;100.00
44765;BME280;30484;52.382;5.260;2023-01-26T12:52:31;102635.47;;;12.38;100.00
44765;BME280;30484;52.382;5.260;2023-01-26T12:55:11;102630.72;;;12.48;100.00
44765;BME280;30484;52.382;5.260;2023-01-26T12:57:49;102626.31;;;12.45;100.00
44765;BME280;30484;52.382;5.260;2023-01-26T13:00:22;102634.88;;;12.88;100.00
44765;BME280;30484;52.382;5.260;2023-01-26T13:02:56;102633.16;;;12.57;100.00
44765;BME280;30484;52.382;5.260;2023-01-26T13:05:30;102620.97;;;12.14;100.00
44765;BME280;30484;52.382;5.260;2023-01-26T13:08:45;102638.16;;;12.68;100.00
44765;BME280;30484;52.382;5.260;2023-01-26T13:11:41;102635.66;;;12.32;100.00
44765;BME280;30484;52.382;5.260;2023-01-26T13:14:32;102637.75;;;12.52;100.00
44765;BME280;30484;52.382;5.260;2023-01-26T13:17:51;102631.72;;;12.73;100.00
44765;BME280;30484;52.382;5.260;2023-01-26T13:20:51;102634.84;;;12.59;100.00
44765;BME280;30484;52.382;5.260;2023-01-26T13:23:41;102633.53;;;12.43;100.00
44765;BME280;30484;52.382;5.260;2023-01-26T13:26:20;102636.81;;;12.23;100.00
44765;BME280;30484;52.382;5.260;2023-01-26T13:28:51;102636.00;;;12.51;100.00
44765;BME280;30484;52.382;5.260;2023-01-26T13:31:40;102632.19;;;12.58;100.00
44765;BME280;30484;52.382;5.260;2023-01-26T13:34:13;102624.09;;;12.59;100.00
44765;BME280;30484;52.382;5.260;2023-01-26T13:36:47;102634.31;;;12.47;100.00